sensor_id;sensor_type;location;lat;lon;timestamp;P1;durP1;ratioP1;P2;durP2;ratioP2
44720;SDS011;30450;52.534;13.398;2022-08-04T00:00:30;7.68;;;5.57;;
44720;SDS011;30450;52.534;13.398;2022-08-04T00:03:12;6.38;;;5.18;;
44720;SDS011;30450;52.534;13.398;2022-08-04T00:08:15;8.35;;;5.38;;
44720;SDS011;30450;52.534;13.398;2022-08-04T00:10:52;10.25;;;5.75;;
44720;SDS011;30450;52.534;13.398;2022-08-04T00:13:22;12.48;;;6.13;;
44720;SDS011;30450;52.534;13.398;2022-08-04T00:15:51;10.35;;;6.43;;
44720;SDS011;30450;52.534;13.398;2022-08-04T00:18:17;8.10;;;6.05;;
44720;SDS011;30450;52.534;13.398;2022-08-04T00:20:45;9.05;;;6.15;;
44720;SDS011;30450;52.534;13.398;2022-08-04T00:23:11;5.25;;;4.60;;
44720;SDS011;30450;52.534;13.398;2022-08-04T00:25:38;7.57;;;4.65;;
44720;SDS011;30450;52.534;13.398;2022-08-04T00:28:05;6.72;;;4.85;;
44720;SDS011;30450;52.534;13.398;2022-08-04T00:30:31;4.72;;;4.22;;
44720;SDS011;30450;52.534;13.398;2022-08-04T00:32:57;6.32;;;5.60;;
44720;SDS011;30450;52.534;13.398;2022-08-04T00:35:23;6.30;;;5.60;;
44720;SDS011;30450;52.534;13.398;2022-08-04T00:37:48;8.73;;;5.90;;
44720;SDS011;30450;52.534;13.398;2022-08-04T00:40:22;5.97;;;4.70;;
44720;SDS011;30450;52.534;13.398;2022-08-04T00:50:48;6.55;;;4.60;;
44720;SDS011;30450;52.534;13.398;2022-08-04T00:53:29;4.40;;;4.00;;
44720;SDS011;30450;52.534;13.398;2022-08-04T00:58:58;6.05;;;4.57;;
44720;SDS011;30450;52.534;13.398;2022-08-04T01:07:10;7.45;;;4.57;;
44720;SDS011;30450;52.534;13.398;2022-08-04T01:17:53;5.10;;;4.18;;
44720;SDS011;30450;52.534;13.398;2022-08-04T01:20:25;7.15;;;5.15;;
44720;SDS011;30450;52.534;13.398;2022-08-04T01:26:00;6.03;;;5.35;;
44720;SDS011;30450;52.534;13.398;2022-08-04T01:28:28;6.90;;;4.80;;
44720;SDS011;30450;52.534;13.398;2022-08-04T01:31:05;6.00;;;4.30;;
44720;SDS011;30450;52.534;13.398;2022-08-04T01:33:32;6.93;;;4.80;;
44720;SDS011;30450;52.534;13.398;2022-08-04T01:36:03;7.00;;;4.88;;
44720;SDS011;30450;52.534;13.398;2022-08-04T01:38:32;6.05;;;4.82;;
44720;SDS011;30450;52.534;13.398;2022-08-04T01:41:02;6.00;;;5.25;;
44720;SDS011;30450;52.534;13.398;2022-08-04T01:43:28;6.90;;;4.60;;
44720;SDS011;30450;52.534;13.398;2022-08-04T01:45:59;5.05;;;4.55;;
44720;SDS011;30450;52.534;13.398;2022-08-04T01:48:25;4.65;;;4.07;;
44720;SDS011;30450;52.534;13.398;2022-08-04T01:50:58;4.95;;;4.18;;
44720;SDS011;30450;52.534;13.398;2022-08-04T01:53:28;7.05;;;4.50;;
44720;SDS011;30450;52.534;13.398;2022-08-04T01:55:54;8.55;;;4.80;;
44720;SDS011;30450;52.534;13.398;2022-08-04T01:58:23;5.93;;;4.40;;
44720;SDS011;30450;52.534;13.398;2022-08-04T02:03:14;8.63;;;4.25;;
44720;SDS011;30450;52.534;13.398;2022-08-04T02:05:41;3.90;;;3.60;;
44720;SDS011;30450;52.534;13.398;2022-08-04T02:11:19;5.38;;;4.30;;
44720;SDS011;30450;52.534;13.398;2022-08-04T02:14:01;5.68;;;3.90;;
44720;SDS011;30450;52.534;13.398;2022-08-04T02:16:46;5.20;;;3.58;;
44720;SDS011;30450;52.534;13.398;2022-08-04T02:19:26;7.78;;;4.28;;
44720;SDS011;30450;52.534;13.398;2022-08-04T02:22:07;5.07;;;3.75;;
44720;SDS011;30450;52.534;13.398;2022-08-04T02:24:34;15.25;;;4.80;;
44720;SDS011;30450;52.534;13.398;2022-08-04T02:27:07;8.45;;;3.95;;
44720;SDS011;30450;52.534;13.398;2022-08-04T02:29:34;6.55;;;4.20;;
44720;SDS011;30450;52.534;13.398;2022-08-04T02:32:04;5.32;;;3.58;;
44720;SDS011;30450;52.534;13.398;2022-08-04T02:34:31;7.57;;;3.80;;
44720;SDS011;30450;52.534;13.398;2022-08-04T02:36:59;7.03;;;4.47;;
44720;SDS011;30450;52.534;13.398;2022-08-04T02:39:30;3.95;;;3.63;;
44720;SDS011;30450;52.534;13.398;2022-08-04T02:41:57;6.40;;;4.22;;
44720;SDS011;30450;52.534;13.398;2022-08-04T02:44:24;6.40;;;4.20;;
44720;SDS011;30450;52.534;13.398;2022-08-04T02:46:51;4.63;;;4.13;;
44720;SDS011;30450;52.534;13.398;2022-08-04T02:49:18;5.57;;;3.83;;
44720;SDS011;30450;52.534;13.398;2022-08-04T02:51:46;4.30;;;3.67;;
44720;SDS011;30450;52.534;13.398;2022-08-04T02:54:15;5.78;;;4.35;;
44720;SDS011;30450;52.534;13.398;2022-08-04T02:56:42;8.30;;;4.20;;
44720;SDS011;30450;52.534;13.398;2022-08-04T03:01:35;4.45;;;4.03;;
44720;SDS011;30450;52.534;13.398;2022-08-04T03:04:50;4.28;;;3.88;;
44720;SDS011;30450;52.534;13.398;2022-08-04T03:06:59;6.07;;;4.13;;
44720;SDS011;30450;52.534;13.398;2022-08-04T03:14:47;4.97;;;4.38;;
44720;SDS011;30450;52.534;13.398;2022-08-04T03:17:30;7.60;;;4.40;;
44720;SDS011;30450;52.534;13.398;2022-08-04T03:25:13;4.32;;;3.92;;
44720;SDS011;30450;52.534;13.398;2022-08-04T03:28:05;4.70;;;4.18;;
44720;SDS011;30450;52.534;13.398;2022-08-04T03:30:42;6.03;;;4.35;;
44720;SDS011;30450;52.534;13.398;2022-08-04T03:38:30;6.15;;;4.60;;
44720;SDS011;30450;52.534;13.398;2022-08-04T03:43:33;9.57;;;4.47;;
44720;SDS011;30450;52.534;13.398;2022-08-04T03:46:14;6.57;;;4.28;;
44720;SDS011;30450;52.534;13.398;2022-08-04T04:04:59;6.65;;;4.70;;
44720;SDS011;30450;52.534;13.398;2022-08-04T04:23:07;7.38;;;5.32;;
44720;SDS011;30450;52.534;13.398;2022-08-04T04:25:54;12.88;;;5.18;;
44720;SDS011;30450;52.534;13.398;2022-08-04T04:31:02;8.32;;;5.03;;
44720;SDS011;30450;52.534;13.398;2022-08-04T04:33:42;7.05;;;5.82;;
44720;SDS011;30450;52.534;13.398;2022-08-04T04:43:53;11.52;;;4.93;;
44720;SDS011;30450;52.534;13.398;2022-08-04T04:46:41;8.15;;;5.22;;
44720;SDS011;30450;52.534;13.398;2022-08-04T04:49:19;6.80;;;4.93;;
44720;SDS011;30450;52.534;13.398;2022-08-04T04:52:05;6.68;;;4.53;;
44720;SDS011;30450;52.534;13.398;2022-08-04T04:54:36;9.77;;;5.57;;
44720;SDS011;30450;52.534;13.398;2022-08-04T04:57:06;7.00;;;5.07;;
44720;SDS011;30450;52.534;13.398;2022-08-04T04:59:35;6.95;;;4.82;;
44720;SDS011;30450;52.534;13.398;2022-08-04T05:14:25;7.38;;;5.57;;
44720;SDS011;30450;52.534;13.398;2022-08-04T05:16:59;6.82;;;5.57;;
44720;SDS011;30450;52.534;13.398;2022-08-04T05:19:30;9.00;;;5.28;;
44720;SDS011;30450;52.534;13.398;2022-08-04T05:22:00;8.07;;;5.60;;
44720;SDS011;30450;52.534;13.398;2022-08-04T05:24:28;6.22;;;5.32;;
44720;SDS011;30450;52.534;13.398;2022-08-04T05:26:57;10.05;;;5.60;;
44720;SDS011;30450;52.534;13.398;2022-08-04T05:31:51;10.15;;;5.97;;
44720;SDS011;30450;52.534;13.398;2022-08-04T05:34:19;8.13;;;6.00;;
44720;SDS011;30450;52.534;13.398;2022-08-04T05:36:46;6.93;;;5.45;;
44720;SDS011;30450;52.534;13.398;2022-08-04T05:39:18;6.30;;;5.22;;
44720;SDS011;30450;52.534;13.398;2022-08-04T05:41:44;9.60;;;5.82;;
44720;SDS011;30450;52.534;13.398;2022-08-04T05:44:10;9.27;;;6.00;;
44720;SDS011;30450;52.534;13.398;2022-08-04T05:46:39;15.70;;;5.72;;
44720;SDS011;30450;52.534;13.398;2022-08-04T05:49:06;11.43;;;6.93;;
44720;SDS011;30450;52.534;13.398;2022-08-04T05:51:33;16.63;;;6.32;;
44720;SDS011;30450;52.534;13.398;2022-08-04T05:53:59;11.73;;;5.97;;
44720;SDS011;30450;52.534;13.398;2022-08-04T05:56:26;16.67;;;5.97;;
44720;SDS011;30450;52.534;13.398;2022-08-04T05:58:53;7.70;;;5.05;;
44720;SDS011;30450;52.534;13.398;2022-08-04T06:01:19;14.43;;;5.95;;
44720;SDS011;30450;52.534;13.398;2022-08-04T06:03:47;9.77;;;5.88;;
44720;SDS011;30450;52.534;13.398;2022-08-04T06:06:14;11.85;;;6.22;;
44720;SDS011;30450;52.534;13.398;2022-08-04T06:08:41;9.02;;;5.95;;
44720;SDS011;30450;52.534;13.398;2022-08-04T06:11:10;12.05;;;5.80;;
44720;SDS011;30450;52.534;13.398;2022-08-04T06:13:36;18.77;;;6.15;;
44720;SDS011;30450;52.534;13.398;2022-08-04T06:16:04;8.88;;;6.15;;
44720;SDS011;30450;52.534;13.398;2022-08-04T06:20:56;11.43;;;5.60;;
44720;SDS011;30450;52.534;13.398;2022-08-04T06:23:22;16.33;;;6.23;;
44720;SDS011;30450;52.534;13.398;2022-08-04T06:25:50;13.00;;;7.20;;
44720;SDS011;30450;52.534;13.398;2022-08-04T06:28:18;21.17;;;14.45;;
44720;SDS011;30450;52.534;13.398;2022-08-04T06:30:44;14.10;;;9.93;;
44720;SDS011;30450;52.534;13.398;2022-08-04T06:33:13;17.65;;;6.97;;
44720;SDS011;30450;52.534;13.398;2022-08-04T06:35:52;22.52;;;7.68;;
44720;SDS011;30450;52.534;13.398;2022-08-04T06:38:23;14.85;;;7.53;;
44720;SDS011;30450;52.534;13.398;2022-08-04T06:40:49;10.20;;;6.63;;
44720;SDS011;30450;52.534;13.398;2022-08-04T06:43:16;20.05;;;8.60;;
44720;SDS011;30450;52.534;13.398;2022-08-04T06:45:43;12.25;;;6.38;;
44720;SDS011;30450;52.534;13.398;2022-08-04T06:48:11;15.57;;;6.72;;
44720;SDS011;30450;52.534;13.398;2022-08-04T06:50:37;30.42;;;8.25;;
44720;SDS011;30450;52.534;13.398;2022-08-04T06:53:03;12.97;;;7.13;;
44720;SDS011;30450;52.534;13.398;2022-08-04T06:55:29;22.33;;;7.28;;
44720;SDS011;30450;52.534;13.398;2022-08-04T06:57:55;17.70;;;6.60;;
44720;SDS011;30450;52.534;13.398;2022-08-04T07:00:22;17.48;;;6.88;;
44720;SDS011;30450;52.534;13.398;2022-08-04T07:02:51;17.17;;;7.35;;
44720;SDS011;30450;52.534;13.398;2022-08-04T07:05:18;16.67;;;6.15;;
44720;SDS011;30450;52.534;13.398;2022-08-04T07:07:44;15.60;;;6.17;;
44720;SDS011;30450;52.534;13.398;2022-08-04T07:10:10;13.07;;;5.53;;
44720;SDS011;30450;52.534;13.398;2022-08-04T07:12:36;13.82;;;5.78;;
44720;SDS011;30450;52.534;13.398;2022-08-04T07:15:03;8.10;;;5.35;;
44720;SDS011;30450;52.534;13.398;2022-08-04T07:17:29;15.77;;;6.20;;
44720;SDS011;30450;52.534;13.398;2022-08-04T07:19:56;16.33;;;6.53;;
44720;SDS011;30450;52.534;13.398;2022-08-04T07:22:23;21.25;;;6.90;;
44720;SDS011;30450;52.534;13.398;2022-08-04T07:24:51;18.45;;;6.70;;
44720;SDS011;30450;52.534;13.398;2022-08-04T07:27:18;37.83;;;8.65;;
44720;SDS011;30450;52.534;13.398;2022-08-04T07:29:44;15.93;;;7.03;;
44720;SDS011;30450;52.534;13.398;2022-08-04T07:32:10;8.45;;;5.60;;
44720;SDS011;30450;52.534;13.398;2022-08-04T07:37:03;14.43;;;5.27;;
44720;SDS011;30450;52.534;13.398;2022-08-04T07:39:29;13.73;;;5.97;;
44720;SDS011;30450;52.534;13.398;2022-08-04T07:42:02;10.82;;;5.15;;
44720;SDS011;30450;52.534;13.398;2022-08-04T07:44:32;10.98;;;5.25;;
44720;SDS011;30450;52.534;13.398;2022-08-04T07:46:58;10.32;;;4.68;;
44720;SDS011;30450;52.534;13.398;2022-08-04T07:49:24;15.07;;;5.50;;
44720;SDS011;30450;52.534;13.398;2022-08-04T07:51:51;16.65;;;5.68;;
44720;SDS011;30450;52.534;13.398;2022-08-04T07:54:18;12.10;;;4.78;;
44720;SDS011;30450;52.534;13.398;2022-08-04T07:56:44;16.92;;;4.30;;
44720;SDS011;30450;52.534;13.398;2022-08-04T07:59:10;12.90;;;4.00;;
44720;SDS011;30450;52.534;13.398;2022-08-04T08:01:36;6.97;;;4.70;;
44720;SDS011;30450;52.534;13.398;2022-08-04T08:04:04;5.82;;;3.88;;
44720;SDS011;30450;52.534;13.398;2022-08-04T08:06:30;6.55;;;4.45;;
44720;SDS011;30450;52.534;13.398;2022-08-04T08:08:56;15.85;;;4.78;;
44720;SDS011;30450;52.534;13.398;2022-08-04T08:11:22;13.30;;;4.57;;
44720;SDS011;30450;52.534;13.398;2022-08-04T08:13:48;7.35;;;5.10;;
44720;SDS011;30450;52.534;13.398;2022-08-04T08:16:14;14.77;;;5.32;;
44720;SDS011;30450;52.534;13.398;2022-08-04T08:18:39;6.80;;;4.90;;
44720;SDS011;30450;52.534;13.398;2022-08-04T08:21:05;7.80;;;5.38;;
44720;SDS011;30450;52.534;13.398;2022-08-04T08:23:33;18.77;;;5.87;;
44720;SDS011;30450;52.534;13.398;2022-08-04T08:25:59;11.27;;;4.97;;
44720;SDS011;30450;52.534;13.398;2022-08-04T08:28:25;13.00;;;5.25;;
44720;SDS011;30450;52.534;13.398;2022-08-04T08:30:51;9.82;;;5.07;;
44720;SDS011;30450;52.534;13.398;2022-08-04T08:33:17;10.93;;;5.22;;
44720;SDS011;30450;52.534;13.398;2022-08-04T08:35:51;17.00;;;4.80;;
44720;SDS011;30450;52.534;13.398;2022-08-04T08:38:17;10.38;;;5.20;;
44720;SDS011;30450;52.534;13.398;2022-08-04T08:40:51;8.43;;;4.43;;
44720;SDS011;30450;52.534;13.398;2022-08-04T08:48:52;11.77;;;5.50;;
44720;SDS011;30450;52.534;13.398;2022-08-04T08:51:25;12.88;;;5.75;;
44720;SDS011;30450;52.534;13.398;2022-08-04T08:59:15;6.75;;;4.13;;
44720;SDS011;30450;52.534;13.398;2022-08-04T09:14:51;7.72;;;4.03;;
44720;SDS011;30450;52.534;13.398;2022-08-04T09:17:22;8.63;;;4.90;;
44720;SDS011;30450;52.534;13.398;2022-08-04T09:19:53;9.15;;;4.30;;
44720;SDS011;30450;52.534;13.398;2022-08-04T09:22:24;6.97;;;4.47;;
44720;SDS011;30450;52.534;13.398;2022-08-04T09:27:30;7.80;;;3.90;;
44720;SDS011;30450;52.534;13.398;2022-08-04T09:30:04;7.63;;;3.65;;
44720;SDS011;30450;52.534;13.398;2022-08-04T09:37:56;7.13;;;4.20;;
44720;SDS011;30450;52.534;13.398;2022-08-04T09:40:36;9.40;;;4.05;;
44720;SDS011;30450;52.534;13.398;2022-08-04T09:45:42;5.85;;;4.13;;
44720;SDS011;30450;52.534;13.398;2022-08-04T09:48:18;5.70;;;4.40;;
44720;SDS011;30450;52.534;13.398;2022-08-04T09:50:50;12.45;;;5.35;;
44720;SDS011;30450;52.534;13.398;2022-08-04T09:59:00;10.65;;;4.43;;
44720;SDS011;30450;52.534;13.398;2022-08-04T10:01:27;14.82;;;4.80;;
44720;SDS011;30450;52.534;13.398;2022-08-04T10:03:55;14.82;;;5.65;;
44720;SDS011;30450;52.534;13.398;2022-08-04T10:14:50;12.70;;;5.30;;
44720;SDS011;30450;52.534;13.398;2022-08-04T10:19:47;13.80;;;4.65;;
44720;SDS011;30450;52.534;13.398;2022-08-04T10:22:19;16.35;;;4.75;;
44720;SDS011;30450;52.534;13.398;2022-08-04T10:24:49;4.63;;;3.88;;
44720;SDS011;30450;52.534;13.398;2022-08-04T10:27:29;14.18;;;4.85;;
44720;SDS011;30450;52.534;13.398;2022-08-04T10:30:02;4.10;;;3.80;;
44720;SDS011;30450;52.534;13.398;2022-08-04T10:32:39;5.50;;;3.40;;
44720;SDS011;30450;52.534;13.398;2022-08-04T10:35:10;12.20;;;3.53;;
44720;SDS011;30450;52.534;13.398;2022-08-04T10:37:42;8.60;;;4.35;;
44720;SDS011;30450;52.534;13.398;2022-08-04T10:40:31;7.45;;;3.72;;
44720;SDS011;30450;52.534;13.398;2022-08-04T10:43:10;9.75;;;3.47;;
44720;SDS011;30450;52.534;13.398;2022-08-04T10:45:43;7.03;;;3.30;;
44720;SDS011;30450;52.534;13.398;2022-08-04T10:48:21;8.40;;;3.80;;
44720;SDS011;30450;52.534;13.398;2022-08-04T10:50:59;5.57;;;3.38;;
44720;SDS011;30450;52.534;13.398;2022-08-04T10:53:26;7.22;;;3.60;;
44720;SDS011;30450;52.534;13.398;2022-08-04T10:56:05;8.30;;;3.28;;
44720;SDS011;30450;52.534;13.398;2022-08-04T10:58:50;4.65;;;3.25;;
44720;SDS011;30450;52.534;13.398;2022-08-04T11:01:20;5.78;;;3.33;;
44720;SDS011;30450;52.534;13.398;2022-08-04T11:03:51;10.57;;;4.55;;
44720;SDS011;30450;52.534;13.398;2022-08-04T11:06:19;3.85;;;3.20;;
44720;SDS011;30450;52.534;13.398;2022-08-04T11:08:49;7.97;;;3.28;;
44720;SDS011;30450;52.534;13.398;2022-08-04T11:11:20;5.85;;;3.13;;
44720;SDS011;30450;52.534;13.398;2022-08-04T11:16:20;3.53;;;3.22;;
44720;SDS011;30450;52.534;13.398;2022-08-04T11:21:34;3.60;;;3.15;;
44720;SDS011;30450;52.534;13.398;2022-08-04T11:24:08;5.40;;;3.92;;
44720;SDS011;30450;52.534;13.398;2022-08-04T11:29:16;6.03;;;3.13;;
44720;SDS011;30450;52.534;13.398;2022-08-04T11:31:46;4.82;;;4.30;;
44720;SDS011;30450;52.534;13.398;2022-08-04T11:34:20;5.93;;;3.53;;
44720;SDS011;30450;52.534;13.398;2022-08-04T11:39:29;8.20;;;4.32;;
44720;SDS011;30450;52.534;13.398;2022-08-04T11:44:46;14.23;;;4.05;;
44720;SDS011;30450;52.534;13.398;2022-08-04T11:52:26;5.23;;;3.83;;
44720;SDS011;30450;52.534;13.398;2022-08-04T11:54:53;5.78;;;3.65;;
44720;SDS011;30450;52.534;13.398;2022-08-04T11:57:18;8.70;;;3.80;;
44720;SDS011;30450;52.534;13.398;2022-08-04T11:59:45;5.03;;;3.28;;
44720;SDS011;30450;52.534;13.398;2022-08-04T12:04:59;3.75;;;3.55;;
44720;SDS011;30450;52.534;13.398;2022-08-04T12:07:33;5.30;;;2.83;;
44720;SDS011;30450;52.534;13.398;2022-08-04T12:10:13;9.40;;;3.45;;
44720;SDS011;30450;52.534;13.398;2022-08-04T12:12:45;6.43;;;3.28;;
44720;SDS011;30450;52.534;13.398;2022-08-04T12:15:15;8.95;;;3.75;;
44720;SDS011;30450;52.534;13.398;2022-08-04T12:17:48;4.68;;;2.78;;
44720;SDS011;30450;52.534;13.398;2022-08-04T12:20:17;3.70;;;2.75;;
44720;SDS011;30450;52.534;13.398;2022-08-04T12:22:47;7.93;;;3.30;;
44720;SDS011;30450;52.534;13.398;2022-08-04T12:25:25;4.95;;;2.88;;
44720;SDS011;30450;52.534;13.398;2022-08-04T12:27:58;5.97;;;3.70;;
44720;SDS011;30450;52.534;13.398;2022-08-04T12:30:25;3.50;;;3.20;;
44720;SDS011;30450;52.534;13.398;2022-08-04T12:35:38;4.03;;;3.30;;
44720;SDS011;30450;52.534;13.398;2022-08-04T12:38:08;6.85;;;3.25;;
44720;SDS011;30450;52.534;13.398;2022-08-04T12:40:46;8.15;;;3.00;;
44720;SDS011;30450;52.534;13.398;2022-08-04T12:43:28;7.55;;;3.45;;
44720;SDS011;30450;52.534;13.398;2022-08-04T12:45:57;7.00;;;3.40;;
44720;SDS011;30450;52.534;13.398;2022-08-04T12:48:25;3.60;;;3.30;;
44720;SDS011;30450;52.534;13.398;2022-08-04T12:50:53;7.75;;;3.25;;
44720;SDS011;30450;52.534;13.398;2022-08-04T12:53:19;4.90;;;2.85;;
44720;SDS011;30450;52.534;13.398;2022-08-04T12:55:47;9.52;;;3.13;;
44720;SDS011;30450;52.534;13.398;2022-08-04T12:58:17;5.00;;;3.38;;
44720;SDS011;30450;52.534;13.398;2022-08-04T13:01:07;5.30;;;2.95;;
44720;SDS011;30450;52.534;13.398;2022-08-04T13:03:51;9.52;;;3.40;;
44720;SDS011;30450;52.534;13.398;2022-08-04T13:06:22;4.10;;;2.78;;
44720;SDS011;30450;52.534;13.398;2022-08-04T13:08:48;3.70;;;3.00;;
44720;SDS011;30450;52.534;13.398;2022-08-04T13:11:14;6.33;;;3.10;;
44720;SDS011;30450;52.534;13.398;2022-08-04T13:13:40;5.18;;;3.03;;
44720;SDS011;30450;52.534;13.398;2022-08-04T13:16:08;5.78;;;2.90;;
44720;SDS011;30450;52.534;13.398;2022-08-04T13:18:35;4.65;;;3.10;;
44720;SDS011;30450;52.534;13.398;2022-08-04T13:21:08;7.57;;;3.28;;
44720;SDS011;30450;52.534;13.398;2022-08-04T13:23:34;7.50;;;2.90;;
44720;SDS011;30450;52.534;13.398;2022-08-04T13:28:27;4.85;;;2.60;;
44720;SDS011;30450;52.534;13.398;2022-08-04T13:30:55;5.15;;;3.13;;
44720;SDS011;30450;52.534;13.398;2022-08-04T13:33:21;5.78;;;2.95;;
44720;SDS011;30450;52.534;13.398;2022-08-04T13:35:48;5.80;;;2.78;;
44720;SDS011;30450;52.534;13.398;2022-08-04T13:38:14;3.43;;;2.70;;
44720;SDS011;30450;52.534;13.398;2022-08-04T13:40:41;4.35;;;3.40;;
44720;SDS011;30450;52.534;13.398;2022-08-04T13:43:08;5.28;;;2.70;;
44720;SDS011;30450;52.534;13.398;2022-08-04T13:45:34;4.50;;;2.70;;
44720;SDS011;30450;52.534;13.398;2022-08-04T13:48:02;2.47;;;2.28;;
44720;SDS011;30450;52.534;13.398;2022-08-04T13:50:29;7.20;;;2.95;;
44720;SDS011;30450;52.534;13.398;2022-08-04T13:53:00;4.55;;;2.60;;
44720;SDS011;30450;52.534;13.398;2022-08-04T13:55:30;9.15;;;3.10;;
44720;SDS011;30450;52.534;13.398;2022-08-04T13:57:58;5.50;;;2.33;;
44720;SDS011;30450;52.534;13.398;2022-08-04T14:00:24;5.72;;;2.67;;
44720;SDS011;30450;52.534;13.398;2022-08-04T14:02:55;3.55;;;2.92;;
44720;SDS011;30450;52.534;13.398;2022-08-04T14:05:25;21.17;;;2.85;;
44720;SDS011;30450;52.534;13.398;2022-08-04T14:10:36;3.15;;;2.40;;
44720;SDS011;30450;52.534;13.398;2022-08-04T14:13:02;3.17;;;2.78;;
44720;SDS011;30450;52.534;13.398;2022-08-04T14:17:54;2.87;;;2.40;;
44720;SDS011;30450;52.534;13.398;2022-08-04T14:20:40;4.53;;;2.50;;
44720;SDS011;30450;52.534;13.398;2022-08-04T14:23:22;9.90;;;2.97;;
44720;SDS011;30450;52.534;13.398;2022-08-04T14:25:48;2.72;;;2.50;;
44720;SDS011;30450;52.534;13.398;2022-08-04T14:28:13;6.10;;;2.93;;
44720;SDS011;30450;52.534;13.398;2022-08-04T14:30:51;5.60;;;2.85;;
44720;SDS011;30450;52.534;13.398;2022-08-04T14:33:17;4.00;;;2.30;;
44720;SDS011;30450;52.534;13.398;2022-08-04T14:35:55;2.90;;;2.70;;
44720;SDS011;30450;52.534;13.398;2022-08-04T14:38:20;5.75;;;2.90;;
44720;SDS011;30450;52.534;13.398;2022-08-04T14:40:46;2.60;;;2.40;;
44720;SDS011;30450;52.534;13.398;2022-08-04T14:43:13;7.57;;;3.03;;
44720;SDS011;30450;52.534;13.398;2022-08-04T14:45:42;5.07;;;2.67;;
44720;SDS011;30450;52.534;13.398;2022-08-04T14:50:46;5.25;;;3.38;;
44720;SDS011;30450;52.534;13.398;2022-08-04T14:53:14;4.93;;;2.35;;
44720;SDS011;30450;52.534;13.398;2022-08-04T14:55:50;3.20;;;2.67;;
44720;SDS011;30450;52.534;13.398;2022-08-04T15:00:43;2.08;;;1.98;;
44720;SDS011;30450;52.534;13.398;2022-08-04T15:03:09;5.03;;;2.30;;
44720;SDS011;30450;52.534;13.398;2022-08-04T15:05:35;3.53;;;2.28;;
44720;SDS011;30450;52.534;13.398;2022-08-04T15:10:27;11.40;;;3.10;;
44720;SDS011;30450;52.534;13.398;2022-08-04T15:12:53;8.95;;;3.50;;
44720;SDS011;30450;52.534;13.398;2022-08-04T15:15:22;8.57;;;3.10;;
44720;SDS011;30450;52.534;13.398;2022-08-04T15:17:48;4.00;;;2.70;;
44720;SDS011;30450;52.534;13.398;2022-08-04T15:20:14;6.05;;;3.33;;
44720;SDS011;30450;52.534;13.398;2022-08-04T15:22:41;4.22;;;2.60;;
44720;SDS011;30450;52.534;13.398;2022-08-04T15:25:07;11.27;;;2.85;;
44720;SDS011;30450;52.534;13.398;2022-08-04T15:27:35;2.72;;;2.33;;
44720;SDS011;30450;52.534;13.398;2022-08-04T15:30:05;4.53;;;2.55;;
44720;SDS011;30450;52.534;13.398;2022-08-04T15:32:32;6.43;;;2.47;;
44720;SDS011;30450;52.534;13.398;2022-08-04T15:35:08;2.83;;;2.20;;
44720;SDS011;30450;52.534;13.398;2022-08-04T15:40:17;3.13;;;2.38;;
44720;SDS011;30450;52.534;13.398;2022-08-04T15:42:48;2.65;;;2.45;;
44720;SDS011;30450;52.534;13.398;2022-08-04T15:50:37;5.95;;;3.08;;
44720;SDS011;30450;52.534;13.398;2022-08-04T15:53:25;3.03;;;2.58;;
44720;SDS011;30450;52.534;13.398;2022-08-04T15:55:50;2.40;;;2.20;;
44720;SDS011;30450;52.534;13.398;2022-08-04T15:58:17;9.27;;;2.50;;
44720;SDS011;30450;52.534;13.398;2022-08-04T16:05:59;2.88;;;2.58;;
44720;SDS011;30450;52.534;13.398;2022-08-04T16:08:24;3.60;;;2.75;;
44720;SDS011;30450;52.534;13.398;2022-08-04T16:10:51;8.93;;;2.67;;
44720;SDS011;30450;52.534;13.398;2022-08-04T16:13:20;5.45;;;2.70;;
44720;SDS011;30450;52.534;13.398;2022-08-04T16:15:53;5.65;;;2.90;;
44720;SDS011;30450;52.534;13.398;2022-08-04T16:20:55;7.18;;;2.20;;
44720;SDS011;30450;52.534;13.398;2022-08-04T16:23:45;2.50;;;2.30;;
44720;SDS011;30450;52.534;13.398;2022-08-04T16:26:13;5.32;;;2.60;;
44720;SDS011;30450;52.534;13.398;2022-08-04T16:28:40;4.90;;;3.43;;
44720;SDS011;30450;52.534;13.398;2022-08-04T16:31:10;3.60;;;2.95;;
44720;SDS011;30450;52.534;13.398;2022-08-04T16:33:36;4.28;;;3.15;;
44720;SDS011;30450;52.534;13.398;2022-08-04T16:36:04;4.47;;;2.65;;
44720;SDS011;30450;52.534;13.398;2022-08-04T16:38:30;2.60;;;2.40;;
44720;SDS011;30450;52.534;13.398;2022-08-04T16:40:58;3.58;;;2.78;;
44720;SDS011;30450;52.534;13.398;2022-08-04T16:43:28;6.38;;;2.35;;
44720;SDS011;30450;52.534;13.398;2022-08-04T16:45:59;4.97;;;2.47;;
44720;SDS011;30450;52.534;13.398;2022-08-04T16:48:26;4.40;;;2.50;;
44720;SDS011;30450;52.534;13.398;2022-08-04T16:53:18;3.35;;;2.83;;
44720;SDS011;30450;52.534;13.398;2022-08-04T16:55:48;4.32;;;3.15;;
44720;SDS011;30450;52.534;13.398;2022-08-04T16:58:15;4.97;;;2.75;;
44720;SDS011;30450;52.534;13.398;2022-08-04T17:03:10;3.30;;;2.97;;
44720;SDS011;30450;52.534;13.398;2022-08-04T17:05:36;4.60;;;3.03;;
44720;SDS011;30450;52.534;13.398;2022-08-04T17:08:03;6.55;;;2.70;;
44720;SDS011;30450;52.534;13.398;2022-08-04T17:10:39;6.45;;;2.72;;
44720;SDS011;30450;52.534;13.398;2022-08-04T17:15:51;3.75;;;2.30;;
44720;SDS011;30450;52.534;13.398;2022-08-04T17:18:19;3.55;;;2.83;;
44720;SDS011;30450;52.534;13.398;2022-08-04T17:20:46;5.25;;;3.08;;
44720;SDS011;30450;52.534;13.398;2022-08-04T17:23:24;3.60;;;2.28;;
44720;SDS011;30450;52.534;13.398;2022-08-04T17:25:52;9.00;;;2.75;;
44720;SDS011;30450;52.534;13.398;2022-08-04T17:28:18;5.40;;;2.65;;
44720;SDS011;30450;52.534;13.398;2022-08-04T17:33:14;3.05;;;2.75;;
44720;SDS011;30450;52.534;13.398;2022-08-04T17:35:40;6.32;;;2.78;;
44720;SDS011;30450;52.534;13.398;2022-08-04T17:38:06;3.53;;;2.30;;
44720;SDS011;30450;52.534;13.398;2022-08-04T17:40:32;6.88;;;2.85;;
44720;SDS011;30450;52.534;13.398;2022-08-04T17:43:05;8.98;;;2.97;;
44720;SDS011;30450;52.534;13.398;2022-08-04T17:45:30;5.53;;;3.28;;
44720;SDS011;30450;52.534;13.398;2022-08-04T17:47:56;7.18;;;2.28;;
44720;SDS011;30450;52.534;13.398;2022-08-04T17:50:23;8.40;;;2.87;;
44720;SDS011;30450;52.534;13.398;2022-08-04T17:53:07;4.35;;;3.13;;
44720;SDS011;30450;52.534;13.398;2022-08-04T17:55:43;3.10;;;2.80;;
44720;SDS011;30450;52.534;13.398;2022-08-04T18:00:34;3.53;;;3.03;;
44720;SDS011;30450;52.534;13.398;2022-08-04T18:03:00;6.00;;;3.45;;
44720;SDS011;30450;52.534;13.398;2022-08-04T18:05:26;6.97;;;3.33;;
44720;SDS011;30450;52.534;13.398;2022-08-04T18:07:54;3.97;;;3.00;;
44720;SDS011;30450;52.534;13.398;2022-08-04T18:10:19;12.00;;;3.73;;
44720;SDS011;30450;52.534;13.398;2022-08-04T18:12:45;5.10;;;3.17;;
44720;SDS011;30450;52.534;13.398;2022-08-04T18:15:21;4.40;;;3.00;;
44720;SDS011;30450;52.534;13.398;2022-08-04T18:17:47;11.50;;;7.83;;
44720;SDS011;30450;52.534;13.398;2022-08-04T18:20:16;13.90;;;10.68;;
44720;SDS011;30450;52.534;13.398;2022-08-04T18:22:44;11.35;;;6.55;;
44720;SDS011;30450;52.534;13.398;2022-08-04T18:25:10;9.77;;;4.57;;
44720;SDS011;30450;52.534;13.398;2022-08-04T18:27:47;12.27;;;6.75;;
44720;SDS011;30450;52.534;13.398;2022-08-04T18:30:13;6.13;;;5.13;;
44720;SDS011;30450;52.534;13.398;2022-08-04T18:32:39;6.50;;;4.50;;
44720;SDS011;30450;52.534;13.398;2022-08-04T18:35:05;5.97;;;4.53;;
44720;SDS011;30450;52.534;13.398;2022-08-04T18:37:30;13.97;;;9.97;;
44720;SDS011;30450;52.534;13.398;2022-08-04T18:39:56;11.23;;;7.70;;
44720;SDS011;30450;52.534;13.398;2022-08-04T18:42:22;17.27;;;15.00;;